sensor_id;sensor_type;location;lat;lon;timestamp;P1;durP1;ratioP1;P2;durP2;ratioP2
3000;SDS011;1510;51.072;6.678;2023-12-22T00:00:51;1127.47;;;972.43;;
3000;SDS011;1510;51.072;6.678;2023-12-22T00:03:18;1130.57;;;983.40;;
3000;SDS011;1510;51.072;6.678;2023-12-22T00:05:45;1167.97;;;999.90;;
3000;SDS011;1510;51.072;6.678;2023-12-22T00:08:12;1151.30;;;999.90;;
3000;SDS011;1510;51.072;6.678;2023-12-22T00:10:40;1181.17;;;999.90;;
3000;SDS011;1510;51.072;6.678;2023-12-22T00:13:07;1171.57;;;999.90;;
3000;SDS011;1510;51.072;6.678;2023-12-22T00:15:33;1220.20;;;999.90;;
3000;SDS011;1510;51.072;6.678;2023-12-22T00:18:00;1242.80;;;999.90;;
3000;SDS011;1510;51.072;6.678;2023-12-22T00:20:27;1247.77;;;999.90;;
3000;SDS011;1510;51.072;6.678;2023-12-22T00:22:54;1205.60;;;999.90;;
3000;SDS011;1510;51.072;6.678;2023-12-22T00:25:21;1221.40;;;999.90;;
3000;SDS011;1510;51.072;6.678;2023-12-22T00:27:49;1373.60;;;999.90;;
3000;SDS011;1510;51.072;6.678;2023-12-22T00:30:16;1377.73;;;999.90;;
3000;SDS011;1510;51.072;6.678;2023-12-22T00:32:43;1342.60;;;999.90;;
3000;SDS011;1510;51.072;6.678;2023-12-22T00:35:10;1374.07;;;999.90;;
3000;SDS011;1510;51.072;6.678;2023-12-22T00:37:36;1374.80;;;999.90;;
3000;SDS011;1510;51.072;6.678;2023-12-22T00:40:03;1403.47;;;999.90;;
3000;SDS011;1510;51.072;6.678;2023-12-22T00:42:33;1364.57;;;999.90;;
3000;SDS011;1510;51.072;6.678;2023-12-22T00:45:01;1477.17;;;999.90;;
3000;SDS011;1510;51.072;6.678;2023-12-22T00:47:28;1479.10;;;999.90;;
3000;SDS011;1510;51.072;6.678;2023-12-22T00:49:55;1473.90;;;999.90;;
3000;SDS011;1510;51.072;6.678;2023-12-22T00:52:22;1480.30;;;999.90;;
3000;SDS011;1510;51.072;6.678;2023-12-22T00:54:49;1475.80;;;999.90;;
3000;SDS011;1510;51.072;6.678;2023-12-22T00:57:16;1337.33;;;999.90;;
3000;SDS011;1510;51.072;6.678;2023-12-22T00:59:52;1435.33;;;999.90;;
3000;SDS011;1510;51.072;6.678;2023-12-22T01:02:20;1474.70;;;999.90;;
3000;SDS011;1510;51.072;6.678;2023-12-22T01:04:47;1476.37;;;999.90;;
3000;SDS011;1510;51.072;6.678;2023-12-22T01:07:14;1480.13;;;999.90;;
3000;SDS011;1510;51.072;6.678;2023-12-22T01:09:42;1485.00;;;999.90;;
3000;SDS011;1510;51.072;6.678;2023-12-22T01:12:08;1483.37;;;999.90;;
3000;SDS011;1510;51.072;6.678;2023-12-22T01:14:35;1479.40;;;999.90;;
3000;SDS011;1510;51.072;6.678;2023-12-22T01:17:03;1483.57;;;999.90;;
3000;SDS011;1510;51.072;6.678;2023-12-22T01:19:31;1492.73;;;999.90;;
3000;SDS011;1510;51.072;6.678;2023-12-22T01:21:58;1495.47;;;999.90;;
3000;SDS011;1510;51.072;6.678;2023-12-22T01:24:24;1484.10;;;999.90;;
3000;SDS011;1510;51.072;6.678;2023-12-22T01:26:51;1476.90;;;999.90;;
3000;SDS011;1510;51.072;6.678;2023-12-22T01:29:18;1484.67;;;999.90;;
3000;SDS011;1510;51.072;6.678;2023-12-22T01:31:45;1460.20;;;999.90;;
3000;SDS011;1510;51.072;6.678;2023-12-22T01:34:12;1334.97;;;999.90;;
3000;SDS011;1510;51.072;6.678;2023-12-22T01:36:40;1468.33;;;999.90;;
3000;SDS011;1510;51.072;6.678;2023-12-22T01:39:07;1505.30;;;999.90;;
3000;SDS011;1510;51.072;6.678;2023-12-22T01:41:34;1494.40;;;999.90;;
3000;SDS011;1510;51.072;6.678;2023-12-22T01:44:01;1494.70;;;999.90;;
3000;SDS011;1510;51.072;6.678;2023-12-22T01:46:27;1496.00;;;999.90;;
3000;SDS011;1510;51.072;6.678;2023-12-22T01:48:54;1502.63;;;999.90;;
3000;SDS011;1510;51.072;6.678;2023-12-22T01:51:21;1507.10;;;999.90;;
3000;SDS011;1510;51.072;6.678;2023-12-22T01:53:50;1508.33;;;999.90;;
3000;SDS011;1510;51.072;6.678;2023-12-22T01:56:17;1512.07;;;999.90;;
3000;SDS011;1510;51.072;6.678;2023-12-22T01:58:45;1510.43;;;999.90;;
3000;SDS011;1510;51.072;6.678;2023-12-22T02:01:12;1507.70;;;999.90;;
3000;SDS011;1510;51.072;6.678;2023-12-22T02:03:39;1509.57;;;999.90;;
3000;SDS011;1510;51.072;6.678;2023-12-22T02:06:07;1506.80;;;999.90;;
3000;SDS011;1510;51.072;6.678;2023-12-22T02:08:33;1510.70;;;999.90;;
3000;SDS011;1510;51.072;6.678;2023-12-22T02:11:04;1509.03;;;999.90;;
3000;SDS011;1510;51.072;6.678;2023-12-22T02:13:31;1506.53;;;999.90;;
3000;SDS011;1510;51.072;6.678;2023-12-22T02:16:00;1504.87;;;999.90;;
3000;SDS011;1510;51.072;6.678;2023-12-22T02:18:34;1499.53;;;999.90;;
3000;SDS011;1510;51.072;6.678;2023-12-22T02:21:08;1438.33;;;999.90;;
3000;SDS011;1510;51.072;6.678;2023-12-22T02:23:36;1325.50;;;999.90;;
3000;SDS011;1510;51.072;6.678;2023-12-22T02:26:06;1437.60;;;999.90;;
3000;SDS011;1510;51.072;6.678;2023-12-22T02:29:02;1437.17;;;999.90;;
3000;SDS011;1510;51.072;6.678;2023-12-22T02:31:32;1380.60;;;999.90;;
3000;SDS011;1510;51.072;6.678;2023-12-22T02:34:03;1196.57;;;999.90;;
3000;SDS011;1510;51.072;6.678;2023-12-22T02:36:33;1317.03;;;999.90;;
3000;SDS011;1510;51.072;6.678;2023-12-22T02:39:04;1347.53;;;999.90;;
3000;SDS011;1510;51.072;6.678;2023-12-22T02:41:32;1367.87;;;999.90;;
3000;SDS011;1510;51.072;6.678;2023-12-22T02:44:00;1392.67;;;999.90;;
3000;SDS011;1510;51.072;6.678;2023-12-22T02:46:27;1411.73;;;999.90;;
3000;SDS011;1510;51.072;6.678;2023-12-22T02:48:54;1396.73;;;999.90;;
3000;SDS011;1510;51.072;6.678;2023-12-22T02:51:21;1409.23;;;999.90;;
3000;SDS011;1510;51.072;6.678;2023-12-22T02:53:47;1414.60;;;999.90;;
3000;SDS011;1510;51.072;6.678;2023-12-22T02:56:16;1421.57;;;999.90;;
3000;SDS011;1510;51.072;6.678;2023-12-22T02:58:42;1425.57;;;999.90;;
3000;SDS011;1510;51.072;6.678;2023-12-22T03:01:09;1423.50;;;999.90;;
3000;SDS011;1510;51.072;6.678;2023-12-22T03:03:39;1413.37;;;999.90;;
3000;SDS011;1510;51.072;6.678;2023-12-22T03:06:06;1419.47;;;999.90;;
3000;SDS011;1510;51.072;6.678;2023-12-22T03:08:32;1406.57;;;999.90;;
3000;SDS011;1510;51.072;6.678;2023-12-22T03:10:59;1401.03;;;999.90;;
3000;SDS011;1510;51.072;6.678;2023-12-22T03:13:27;1396.90;;;999.90;;
3000;SDS011;1510;51.072;6.678;2023-12-22T03:15:54;1406.67;;;999.90;;
3000;SDS011;1510;51.072;6.678;2023-12-22T03:18:21;1418.43;;;999.90;;
3000;SDS011;1510;51.072;6.678;2023-12-22T03:20:48;1418.63;;;999.90;;
3000;SDS011;1510;51.072;6.678;2023-12-22T03:23:15;1429.17;;;999.90;;
3000;SDS011;1510;51.072;6.678;2023-12-22T03:25:41;1438.63;;;999.90;;
3000;SDS011;1510;51.072;6.678;2023-12-22T03:28:08;1469.70;;;999.90;;
3000;SDS011;1510;51.072;6.678;2023-12-22T03:30:36;1493.13;;;999.90;;
3000;SDS011;1510;51.072;6.678;2023-12-22T03:33:04;1497.23;;;999.90;;
3000;SDS011;1510;51.072;6.678;2023-12-22T03:35:29;1513.83;;;999.90;;
3000;SDS011;1510;51.072;6.678;2023-12-22T03:37:56;1519.87;;;999.90;;
3000;SDS011;1510;51.072;6.678;2023-12-22T03:40:23;1522.23;;;999.90;;
3000;SDS011;1510;51.072;6.678;2023-12-22T03:42:50;1533.10;;;999.90;;
3000;SDS011;1510;51.072;6.678;2023-12-22T03:45:17;1550.83;;;999.90;;
3000;SDS011;1510;51.072;6.678;2023-12-22T03:47:45;1535.23;;;999.90;;
3000;SDS011;1510;51.072;6.678;2023-12-22T03:50:11;1535.73;;;999.90;;
3000;SDS011;1510;51.072;6.678;2023-12-22T03:52:38;1523.13;;;999.90;;
3000;SDS011;1510;51.072;6.678;2023-12-22T03:55:05;1529.37;;;999.90;;
3000;SDS011;1510;51.072;6.678;2023-12-22T03:57:32;1527.17;;;999.90;;
3000;SDS011;1510;51.072;6.678;2023-12-22T03:59:59;1507.73;;;999.90;;
3000;SDS011;1510;51.072;6.678;2023-12-22T04:02:26;1482.40;;;999.77;;
3000;SDS011;1510;51.072;6.678;2023-12-22T04:04:54;1485.30;;;996.27;;
3000;SDS011;1510;51.072;6.678;2023-12-22T04:07:21;1483.13;;;985.30;;
3000;SDS011;1510;51.072;6.678;2023-12-22T04:09:48;1466.43;;;974.77;;
3000;SDS011;1510;51.072;6.678;2023-12-22T04:12:15;1481.30;;;975.67;;
3000;SDS011;1510;51.072;6.678;2023-12-22T04:14:41;1486.93;;;987.00;;
3000;SDS011;1510;51.072;6.678;2023-12-22T04:17:08;1511.43;;;997.43;;
3000;SDS011;1510;51.072;6.678;2023-12-22T04:19:35;1524.50;;;999.90;;
3000;SDS011;1510;51.072;6.678;2023-12-22T04:22:04;1540.13;;;999.90;;
3000;SDS011;1510;51.072;6.678;2023-12-22T04:24:31;1545.57;;;999.90;;
3000;SDS011;1510;51.072;6.678;2023-12-22T04:26:58;1547.60;;;999.90;;
3000;SDS011;1510;51.072;6.678;2023-12-22T04:29:25;1572.60;;;999.90;;
3000;SDS011;1510;51.072;6.678;2023-12-22T04:31:51;1580.30;;;999.90;;
3000;SDS011;1510;51.072;6.678;2023-12-22T04:34:18;1584.60;;;999.90;;
3000;SDS011;1510;51.072;6.678;2023-12-22T04:36:45;1581.57;;;998.57;;
3000;SDS011;1510;51.072;6.678;2023-12-22T04:39:14;1572.97;;;999.90;;
3000;SDS011;1510;51.072;6.678;2023-12-22T04:41:40;1559.90;;;999.90;;
3000;SDS011;1510;51.072;6.678;2023-12-22T04:44:07;1552.60;;;999.90;;
3000;SDS011;1510;51.072;6.678;2023-12-22T04:46:34;1561.40;;;999.90;;
3000;SDS011;1510;51.072;6.678;2023-12-22T04:49:01;1547.00;;;999.90;;
3000;SDS011;1510;51.072;6.678;2023-12-22T04:51:28;1550.80;;;999.90;;
3000;SDS011;1510;51.072;6.678;2023-12-22T04:53:54;1538.47;;;999.90;;
3000;SDS011;1510;51.072;6.678;2023-12-22T04:56:23;1538.10;;;999.90;;
3000;SDS011;1510;51.072;6.678;2023-12-22T04:58:50;1534.30;;;999.90;;
3000;SDS011;1510;51.072;6.678;2023-12-22T05:01:17;1524.63;;;999.90;;
3000;SDS011;1510;51.072;6.678;2023-12-22T05:03:44;1518.47;;;999.90;;
3000;SDS011;1510;51.072;6.678;2023-12-22T05:06:11;1518.30;;;999.90;;
3000;SDS011;1510;51.072;6.678;2023-12-22T05:08:38;1476.17;;;999.90;;
3000;SDS011;1510;51.072;6.678;2023-12-22T05:11:04;1495.30;;;999.90;;
3000;SDS011;1510;51.072;6.678;2023-12-22T05:13:33;1491.17;;;999.90;;
3000;SDS011;1510;51.072;6.678;2023-12-22T05:16:00;1485.27;;;999.90;;
3000;SDS011;1510;51.072;6.678;2023-12-22T05:18:26;1472.70;;;999.90;;
3000;SDS011;1510;51.072;6.678;2023-12-22T05:20:53;1466.37;;;999.90;;
3000;SDS011;1510;51.072;6.678;2023-12-22T05:23:20;1484.67;;;999.90;;
3000;SDS011;1510;51.072;6.678;2023-12-22T05:25:47;1472.47;;;999.90;;
3000;SDS011;1510;51.072;6.678;2023-12-22T05:28:14;1459.50;;;999.90;;
3000;SDS011;1510;51.072;6.678;2023-12-22T05:30:42;1454.37;;;999.90;;
3000;SDS011;1510;51.072;6.678;2023-12-22T05:33:09;1450.80;;;999.90;;
3000;SDS011;1510;51.072;6.678;2023-12-22T05:35:36;1435.70;;;999.90;;
3000;SDS011;1510;51.072;6.678;2023-12-22T05:38:03;1425.50;;;999.90;;
3000;SDS011;1510;51.072;6.678;2023-12-22T05:40:31;1404.70;;;999.90;;
3000;SDS011;1510;51.072;6.678;2023-12-22T05:42:59;1409.00;;;999.90;;
3000;SDS011;1510;51.072;6.678;2023-12-22T05:45:26;1412.50;;;999.90;;
3000;SDS011;1510;51.072;6.678;2023-12-22T05:47:55;1360.47;;;999.90;;
3000;SDS011;1510;51.072;6.678;2023-12-22T05:50:22;1339.30;;;999.90;;
3000;SDS011;1510;51.072;6.678;2023-12-22T05:52:48;1343.00;;;999.90;;
3000;SDS011;1510;51.072;6.678;2023-12-22T05:55:15;1341.37;;;999.90;;
3000;SDS011;1510;51.072;6.678;2023-12-22T05:57:42;1183.70;;;999.90;;
3000;SDS011;1510;51.072;6.678;2023-12-22T06:00:09;1117.27;;;999.90;;
3000;SDS011;1510;51.072;6.678;2023-12-22T06:02:37;1123.90;;;999.90;;
3000;SDS011;1510;51.072;6.678;2023-12-22T06:05:06;1093.77;;;999.90;;
3000;SDS011;1510;51.072;6.678;2023-12-22T06:07:33;974.27;;;918.57;;
3000;SDS011;1510;51.072;6.678;2023-12-22T06:10:00;954.10;;;900.43;;
3000;SDS011;1510;51.072;6.678;2023-12-22T06:12:27;977.03;;;920.57;;
3000;SDS011;1510;51.072;6.678;2023-12-22T06:14:53;983.77;;;927.83;;
3000;SDS011;1510;51.072;6.678;2023-12-22T06:17:20;908.47;;;856.80;;
3000;SDS011;1510;51.072;6.678;2023-12-22T06:19:47;991.13;;;932.33;;
3000;SDS011;1510;51.072;6.678;2023-12-22T06:22:15;1011.10;;;951.17;;
3000;SDS011;1510;51.072;6.678;2023-12-22T06:24:42;968.13;;;911.27;;
3000;SDS011;1510;51.072;6.678;2023-12-22T06:27:09;967.30;;;910.17;;
3000;SDS011;1510;51.072;6.678;2023-12-22T06:29:36;961.33;;;905.40;;
3000;SDS011;1510;51.072;6.678;2023-12-22T06:32:04;916.17;;;864.07;;
3000;SDS011;1510;51.072;6.678;2023-12-22T06:34:32;869.50;;;820.50;;
3000;SDS011;1510;51.072;6.678;2023-12-22T06:36:59;793.90;;;750.47;;
3000;SDS011;1510;51.072;6.678;2023-12-22T06:39:27;663.13;;;627.60;;
3000;SDS011;1510;51.072;6.678;2023-12-22T06:41:54;567.03;;;538.20;;
3000;SDS011;1510;51.072;6.678;2023-12-22T06:44:21;403.60;;;383.97;;
3000;SDS011;1510;51.072;6.678;2023-12-22T06:46:48;292.03;;;278.33;;
3000;SDS011;1510;51.072;6.678;2023-12-22T06:49:14;255.80;;;243.67;;
3000;SDS011;1510;51.072;6.678;2023-12-22T06:51:41;109.70;;;105.57;;
3000;SDS011;1510;51.072;6.678;2023-12-22T06:54:08;75.03;;;72.00;;
3000;SDS011;1510;51.072;6.678;2023-12-22T06:56:37;26.20;;;24.70;;
3000;SDS011;1510;51.072;6.678;2023-12-22T06:59:04;13.63;;;12.83;;
3000;SDS011;1510;51.072;6.678;2023-12-22T07:01:33;13.33;;;12.03;;
3000;SDS011;1510;51.072;6.678;2023-12-22T07:04:02;22.63;;;21.03;;
3000;SDS011;1510;51.072;6.678;2023-12-22T07:06:31;37.00;;;35.30;;
3000;SDS011;1510;51.072;6.678;2023-12-22T07:11:58;139.00;;;132.97;;
3000;SDS011;1510;51.072;6.678;2023-12-22T07:14:26;372.87;;;361.27;;
3000;SDS011;1510;51.072;6.678;2023-12-22T07:16:53;141.73;;;136.73;;
3000;SDS011;1510;51.072;6.678;2023-12-22T07:19:20;438.47;;;423.40;;
3000;SDS011;1510;51.072;6.678;2023-12-22T07:21:47;445.30;;;429.97;;
3000;SDS011;1510;51.072;6.678;2023-12-22T07:24:14;510.37;;;491.23;;
3000;SDS011;1510;51.072;6.678;2023-12-22T07:26:41;553.80;;;529.20;;
3000;SDS011;1510;51.072;6.678;2023-12-22T07:29:10;607.40;;;575.90;;
3000;SDS011;1510;51.072;6.678;2023-12-22T07:31:37;642.47;;;608.67;;
3000;SDS011;1510;51.072;6.678;2023-12-22T07:34:04;741.20;;;696.40;;
3000;SDS011;1510;51.072;6.678;2023-12-22T07:36:31;770.20;;;721.83;;
3000;SDS011;1510;51.072;6.678;2023-12-22T07:39:01;794.30;;;744.00;;
3000;SDS011;1510;51.072;6.678;2023-12-22T07:41:28;864.53;;;809.17;;
3000;SDS011;1510;51.072;6.678;2023-12-22T07:43:55;873.70;;;815.73;;
3000;SDS011;1510;51.072;6.678;2023-12-22T07:46:23;856.63;;;800.17;;
3000;SDS011;1510;51.072;6.678;2023-12-22T07:48:50;839.33;;;784.43;;
3000;SDS011;1510;51.072;6.678;2023-12-22T07:51:19;809.20;;;754.13;;
3000;SDS011;1510;51.072;6.678;2023-12-22T07:53:46;866.90;;;808.43;;
3000;SDS011;1510;51.072;6.678;2023-12-22T07:56:13;889.20;;;830.73;;
3000;SDS011;1510;51.072;6.678;2023-12-22T07:58:40;867.90;;;810.47;;
3000;SDS011;1510;51.072;6.678;2023-12-22T08:01:07;830.00;;;773.63;;
3000;SDS011;1510;51.072;6.678;2023-12-22T08:03:35;862.30;;;804.57;;
3000;SDS011;1510;51.072;6.678;2023-12-22T08:06:03;852.07;;;795.13;;
3000;SDS011;1510;51.072;6.678;2023-12-22T08:08:30;879.47;;;819.97;;
3000;SDS011;1510;51.072;6.678;2023-12-22T08:10:58;893.60;;;831.53;;
3000;SDS011;1510;51.072;6.678;2023-12-22T08:13:25;914.87;;;852.13;;
3000;SDS011;1510;51.072;6.678;2023-12-22T08:15:52;938.30;;;874.07;;
3000;SDS011;1510;51.072;6.678;2023-12-22T08:18:19;943.63;;;879.97;;
3000;SDS011;1510;51.072;6.678;2023-12-22T08:20:50;941.47;;;876.67;;
3000;SDS011;1510;51.072;6.678;2023-12-22T08:23:17;930.30;;;866.90;;
3000;SDS011;1510;51.072;6.678;2023-12-22T08:25:44;909.77;;;848.03;;
3000;SDS011;1510;51.072;6.678;2023-12-22T08:28:11;931.30;;;868.80;;
3000;SDS011;1510;51.072;6.678;2023-12-22T08:30:38;925.93;;;864.50;;
3000;SDS011;1510;51.072;6.678;2023-12-22T08:33:04;908.33;;;847.20;;
3000;SDS011;1510;51.072;6.678;2023-12-22T08:35:31;907.23;;;846.80;;
3000;SDS011;1510;51.072;6.678;2023-12-22T08:38:00;890.53;;;830.63;;
3000;SDS011;1510;51.072;6.678;2023-12-22T08:40:27;900.90;;;839.83;;
3000;SDS011;1510;51.072;6.678;2023-12-22T08:42:54;894.07;;;833.83;;
3000;SDS011;1510;51.072;6.678;2023-12-22T08:45:24;895.83;;;835.23;;
3000;SDS011;1510;51.072;6.678;2023-12-22T08:47:53;892.83;;;832.53;;
3000;SDS011;1510;51.072;6.678;2023-12-22T08:50:20;872.93;;;814.07;;
3000;SDS011;1510;51.072;6.678;2023-12-22T08:52:47;880.17;;;819.87;;
3000;SDS011;1510;51.072;6.678;2023-12-22T08:55:15;862.30;;;803.50;;
3000;SDS011;1510;51.072;6.678;2023-12-22T08:57:42;860.07;;;801.07;;
3000;SDS011;1510;51.072;6.678;2023-12-22T09:00:13;854.23;;;795.40;;
3000;SDS011;1510;51.072;6.678;2023-12-22T09:02:40;868.33;;;806.17;;
3000;SDS011;1510;51.072;6.678;2023-12-22T09:05:07;852.10;;;793.73;;
3000;SDS011;1510;51.072;6.678;2023-12-22T09:07:34;844.57;;;788.33;;
3000;SDS011;1510;51.072;6.678;2023-12-22T09:10:02;844.27;;;788.17;;
3000;SDS011;1510;51.072;6.678;2023-12-22T09:12:31;840.23;;;786.67;;
3000;SDS011;1510;51.072;6.678;2023-12-22T09:14:57;803.85;;;760.45;;
3000;SDS011;1510;51.072;6.678;2023-12-22T09:17:25;804.53;;;759.80;;
3000;SDS011;1510;51.072;6.678;2023-12-22T09:19:52;804.93;;;760.47;;
3000;SDS011;1510;51.072;6.678;2023-12-22T09:22:20;783.10;;;740.73;;
3000;SDS011;1510;51.072;6.678;2023-12-22T09:24:47;770.70;;;731.03;;
3000;SDS011;1510;51.072;6.678;2023-12-22T09:27:14;763.90;;;725.60;;
3000;SDS011;1510;51.072;6.678;2023-12-22T09:29:43;788.00;;;745.57;;
3000;SDS011;1510;51.072;6.678;2023-12-22T09:32:12;780.10;;;738.17;;
3000;SDS011;1510;51.072;6.678;2023-12-22T09:34:39;768.57;;;728.30;;
3000;SDS011;1510;51.072;6.678;2023-12-22T09:37:06;774.63;;;733.93;;
3000;SDS011;1510;51.072;6.678;2023-12-22T09:39:33;772.53;;;732.03;;
3000;SDS011;1510;51.072;6.678;2023-12-22T09:42:00;785.87;;;742.93;;
3000;SDS011;1510;51.072;6.678;2023-12-22T09:44:27;785.53;;;744.00;;
3000;SDS011;1510;51.072;6.678;2023-12-22T09:47:00;798.47;;;755.27;;
3000;SDS011;1510;51.072;6.678;2023-12-22T09:49:30;786.93;;;745.40;;
3000;SDS011;1510;51.072;6.678;2023-12-22T09:51:58;778.87;;;738.70;;
3000;SDS011;1510;51.072;6.678;2023-12-22T09:54:28;702.50;;;670.07;;
3000;SDS011;1510;51.072;6.678;2023-12-22T09:56:58;710.30;;;677.07;;
3000;SDS011;1510;51.072;6.678;2023-12-22T09:59:26;709.57;;;677.23;;
3000;SDS011;1510;51.072;6.678;2023-12-22T10:01:55;632.93;;;607.07;;
3000;SDS011;1510;51.072;6.678;2023-12-22T10:04:24;708.77;;;676.63;;
3000;SDS011;1510;51.072;6.678;2023-12-22T10:06:51;690.33;;;660.10;;
3000;SDS011;1510;51.072;6.678;2023-12-22T10:09:19;736.67;;;701.87;;
3000;SDS011;1510;51.072;6.678;2023-12-22T10:11:48;727.20;;;692.80;;
3000;SDS011;1510;51.072;6.678;2023-12-22T10:14:18;717.30;;;685.17;;
3000;SDS011;1510;51.072;6.678;2023-12-22T10:16:48;755.70;;;718.77;;
3000;SDS011;1510;51.072;6.678;2023-12-22T10:19:15;767.27;;;728.70;;
3000;SDS011;1510;51.072;6.678;2023-12-22T10:21:43;786.10;;;744.70;;
3000;SDS011;1510;51.072;6.678;2023-12-22T10:27:07;815.63;;;769.87;;
3000;SDS011;1510;51.072;6.678;2023-12-22T10:29:37;814.17;;;768.33;;
3000;SDS011;1510;51.072;6.678;2023-12-22T10:32:05;816.20;;;770.17;;
3000;SDS011;1510;51.072;6.678;2023-12-22T10:34:33;778.30;;;736.53;;
3000;SDS011;1510;51.072;6.678;2023-12-22T10:37:02;825.83;;;776.57;;
3000;SDS011;1510;51.072;6.678;2023-12-22T10:39:30;846.97;;;792.83;;
3000;SDS011;1510;51.072;6.678;2023-12-22T10:41:58;843.67;;;788.37;;
3000;SDS011;1510;51.072;6.678;2023-12-22T10:44:25;845.20;;;788.60;;
3000;SDS011;1510;51.072;6.678;2023-12-22T10:46:53;849.80;;;792.60;;
3000;SDS011;1510;51.072;6.678;2023-12-22T10:49:20;848.63;;;792.50;;
3000;SDS011;1510;51.072;6.678;2023-12-22T10:51:48;845.67;;;787.90;;
3000;SDS011;1510;51.072;6.678;2023-12-22T10:54:17;829.47;;;773.53;;
3000;SDS011;1510;51.072;6.678;2023-12-22T10:56:44;834.20;;;778.67;;
3000;SDS011;1510;51.072;6.678;2023-12-22T10:59:11;843.80;;;788.10;;
3000;SDS011;1510;51.072;6.678;2023-12-22T11:01:38;835.80;;;781.20;;
3000;SDS011;1510;51.072;6.678;2023-12-22T11:04:07;841.53;;;786.87;;
3000;SDS011;1510;51.072;6.678;2023-12-22T11:06:36;835.70;;;781.60;;
3000;SDS011;1510;51.072;6.678;2023-12-22T11:09:05;837.30;;;783.27;;
3000;SDS011;1510;51.072;6.678;2023-12-22T11:11:36;837.90;;;784.20;;
3000;SDS011;1510;51.072;6.678;2023-12-22T11:14:04;837.20;;;783.80;;
3000;SDS011;1510;51.072;6.678;2023-12-22T11:16:32;846.90;;;793.40;;
3000;SDS011;1510;51.072;6.678;2023-12-22T11:19:00;851.17;;;797.77;;
3000;SDS011;1510;51.072;6.678;2023-12-22T11:21:28;847.93;;;795.70;;
3000;SDS011;1510;51.072;6.678;2023-12-22T11:23:56;849.30;;;798.17;;
3000;SDS011;1510;51.072;6.678;2023-12-22T11:26:24;831.43;;;783.37;;
3000;SDS011;1510;51.072;6.678;2023-12-22T11:28:53;814.27;;;766.73;;
3000;SDS011;1510;51.072;6.678;2023-12-22T11:31:19;799.20;;;752.20;;
3000;SDS011;1510;51.072;6.678;2023-12-22T11:33:47;782.30;;;734.80;;
3000;SDS011;1510;51.072;6.678;2023-12-22T11:36:15;789.83;;;741.13;;
3000;SDS011;1510;51.072;6.678;2023-12-22T11:38:43;775.73;;;726.53;;
3000;SDS011;1510;51.072;6.678;2023-12-22T11:41:19;785.37;;;735.47;;
3000;SDS011;1510;51.072;6.678;2023-12-22T11:43:50;801.37;;;750.00;;
3000;SDS011;1510;51.072;6.678;2023-12-22T11:46:20;803.07;;;751.73;;
3000;SDS011;1510;51.072;6.678;2023-12-22T11:48:47;823.00;;;769.73;;
3000;SDS011;1510;51.072;6.678;2023-12-22T11:51:15;825.03;;;771.30;;
3000;SDS011;1510;51.072;6.678;2023-12-22T11:53:43;814.83;;;761.40;;
3000;SDS011;1510;51.072;6.678;2023-12-22T11:56:11;830.33;;;775.83;;
3000;SDS011;1510;51.072;6.678;2023-12-22T11:58:39;820.90;;;767.80;;
3000;SDS011;1510;51.072;6.678;2023-12-22T12:01:09;820.10;;;767.27;;
3000;SDS011;1510;51.072;6.678;2023-12-22T12:03:37;825.30;;;772.93;;
3000;SDS011;1510;51.072;6.678;2023-12-22T12:06:10;823.63;;;771.60;;
3000;SDS011;1510;51.072;6.678;2023-12-22T12:08:39;870.13;;;812.63;;
3000;SDS011;1510;51.072;6.678;2023-12-22T12:11:07;874.83;;;818.13;;
3000;SDS011;1510;51.072;6.678;2023-12-22T12:13:34;873.20;;;816.37;;
3000;SDS011;1510;51.072;6.678;2023-12-22T12:16:04;881.10;;;822.30;;
3000;SDS011;1510;51.072;6.678;2023-12-22T12:18:36;865.17;;;809.43;;
3000;SDS011;1510;51.072;6.678;2023-12-22T12:21:03;820.17;;;771.80;;
3000;SDS011;1510;51.072;6.678;2023-12-22T12:23:32;837.00;;;784.40;;
3000;SDS011;1510;51.072;6.678;2023-12-22T12:25:59;842.83;;;789.70;;
3000;SDS011;1510;51.072;6.678;2023-12-22T12:28:28;834.60;;;784.50;;
3000;SDS011;1510;51.072;6.678;2023-12-22T12:31:02;842.03;;;792.50;;
3000;SDS011;1510;51.072;6.678;2023-12-22T12:33:31;842.97;;;792.83;;
3000;SDS011;1510;51.072;6.678;2023-12-22T12:36:00;842.20;;;792.47;;
3000;SDS011;1510;51.072;6.678;2023-12-22T12:38:35;823.90;;;778.10;;
3000;SDS011;1510;51.072;6.678;2023-12-22T12:41:06;803.07;;;760.87;;
3000;SDS011;1510;51.072;6.678;2023-12-22T12:43:35;738.03;;;703.93;;
3000;SDS011;1510;51.072;6.678;2023-12-22T12:46:03;731.50;;;697.07;;
3000;SDS011;1510;51.072;6.678;2023-12-22T12:48:30;745.67;;;708.73;;
3000;SDS011;1510;51.072;6.678;2023-12-22T12:51:02;556.28;;;535.47;;
3000;SDS011;1510;51.072;6.678;2023-12-22T12:53:30;404.50;;;391.33;;
3000;SDS011;1510;51.072;6.678;2023-12-22T12:55:58;483.20;;;466.87;;
3000;SDS011;1510;51.072;6.678;2023-12-22T12:58:28;478.80;;;462.40;;
3000;SDS011;1510;51.072;6.678;2023-12-22T13:01:03;422.57;;;409.03;;
3000;SDS011;1510;51.072;6.678;2023-12-22T13:03:31;462.17;;;446.60;;
3000;SDS011;1510;51.072;6.678;2023-12-22T13:06:09;374.97;;;363.07;;
3000;SDS011;1510;51.072;6.678;2023-12-22T13:08:36;415.27;;;401.80;;
3000;SDS011;1510;51.072;6.678;2023-12-22T13:11:05;440.40;;;425.80;;
3000;SDS011;1510;51.072;6.678;2023-12-22T13:13:40;485.10;;;468.40;;
3000;SDS011;1510;51.072;6.678;2023-12-22T13:16:07;555.87;;;535.37;;
3000;SDS011;1510;51.072;6.678;2023-12-22T13:18:35;589.90;;;567.90;;
3000;SDS011;1510;51.072;6.678;2023-12-22T13:21:03;598.63;;;575.67;;
3000;SDS011;1510;51.072;6.678;2023-12-22T13:23:31;597.73;;;575.17;;
3000;SDS011;1510;51.072;6.678;2023-12-22T13:25:59;611.20;;;587.73;;
3000;SDS011;1510;51.072;6.678;2023-12-22T13:28:26;577.07;;;555.83;;
3000;SDS011;1510;51.072;6.678;2023-12-22T13:30:53;606.67;;;583.03;;
3000;SDS011;1510;51.072;6.678;2023-12-22T13:33:21;514.80;;;496.60;;
3000;SDS011;1510;51.072;6.678;2023-12-22T13:35:50;561.57;;;540.97;;
3000;SDS011;1510;51.072;6.678;2023-12-22T13:38:17;523.50;;;505.43;;
3000;SDS011;1510;51.072;6.678;2023-12-22T13:40:47;541.93;;;522.60;;
3000;SDS011;1510;51.072;6.678;2023-12-22T13:43:14;568.33;;;546.70;;
3000;SDS011;1510;51.072;6.678;2023-12-22T13:45:41;551.87;;;532.13;;
3000;SDS011;1510;51.072;6.678;2023-12-22T13:48:08;547.43;;;529.13;;
3000;SDS011;1510;51.072;6.678;2023-12-22T13:50:35;545.53;;;526.53;;
3000;SDS011;1510;51.072;6.678;2023-12-22T13:53:08;521.73;;;504.73;;
3000;SDS011;1510;51.072;6.678;2023-12-22T13:55:38;550.50;;;531.70;;
3000;SDS011;1510;51.072;6.678;2023-12-22T13:58:07;614.33;;;590.73;;
3000;SDS011;1510;51.072;6.678;2023-12-22T14:00:36;622.17;;;598.10;;
3000;SDS011;1510;51.072;6.678;2023-12-22T14:03:07;609.57;;;583.53;;
3000;SDS011;1510;51.072;6.678;2023-12-22T14:05:34;640.93;;;610.33;;
3000;SDS011;1510;51.072;6.678;2023-12-22T14:08:01;648.90;;;616.23;;
3000;SDS011;1510;51.072;6.678;2023-12-22T14:10:30;647.00;;;613.40;;
3000;SDS011;1510;51.072;6.678;2023-12-22T14:12:56;654.23;;;620.13;;
3000;SDS011;1510;51.072;6.678;2023-12-22T14:15:25;657.07;;;621.37;;
3000;SDS011;1510;51.072;6.678;2023-12-22T14:17:54;571.10;;;542.17;;
3000;SDS011;1510;51.072;6.678;2023-12-22T14:20:21;618.97;;;584.27;;
3000;SDS011;1510;51.072;6.678;2023-12-22T14:22:49;644.23;;;606.37;;
3000;SDS011;1510;51.072;6.678;2023-12-22T14:25:16;693.87;;;649.23;;